createdAt,value
2022-10-24T00:00:09.601Z,10.77
2022-10-24T00:01:10.984Z,8.85
2022-10-24T00:02:12.754Z,8.02
2022-10-24T00:03:13.898Z,10.18
2022-10-24T00:04:15.026Z,10.55
2022-10-24T00:05:15.942Z,10.25
2022-10-24T00:06:17.525Z,11.52
2022-10-24T00:07:18.425Z,8.93
2022-10-24T00:08:19.673Z,11.37
2022-10-24T00:09:20.533Z,8.07
2022-10-24T00:10:21.857Z,9.40
2022-10-24T00:11:23.930Z,9.52
2022-10-24T00:12:25.084Z,8.93
2022-10-24T00:13:25.957Z,7.90
2022-10-24T00:14:27.292Z,8.10
2022-10-24T00:15:28.309Z,9.57
2022-10-24T00:16:29.506Z,9.70
2022-10-24T00:17:31.087Z,9.15
2022-10-24T00:18:32.284Z,8.55
2022-10-24T00:19:33.136Z,9.00
2022-10-24T00:20:36.408Z,10.00
2022-10-24T00:21:38.718Z,9.13
2022-10-24T00:22:39.836Z,12.00
2022-10-24T00:23:40.695Z,9.02
2022-10-24T00:24:41.822Z,9.60
2022-10-24T00:25:42.705Z,9.82
2022-10-24T00:26:43.870Z,11.63
2022-10-24T00:27:44.735Z,10.95
2022-10-24T00:28:45.872Z,9.67
2022-10-24T00:29:46.719Z,7.07
2022-10-24T00:30:50.405Z,12.40
2022-10-24T00:31:51.261Z,9.60
2022-10-24T00:32:53.022Z,7.53
2022-10-24T00:33:55.935Z,9.65
2022-10-24T00:34:57.258Z,9.30
2022-10-24T00:35:58.523Z,8.00
2022-10-24T00:36:59.629Z,9.13
2022-10-24T00:38:00.478Z,10.73
2022-10-24T00:39:01.935Z,8.07
2022-10-24T00:40:04.578Z,7.40
2022-10-24T00:41:05.818Z,8.43
2022-10-24T00:42:06.655Z,7.75
2022-10-24T00:43:13.142Z,8.03
2022-10-24T00:44:19.425Z,6.97
2022-10-24T00:45:41.710Z,6.13
2022-10-24T00:46:44.824Z,7.57
2022-10-24T00:47:46.200Z,7.40
2022-10-24T00:48:49.668Z,9.32
2022-10-24T00:49:52.022Z,7.35
2022-10-24T00:50:55.014Z,8.85
2022-10-24T00:51:58.561Z,7.25
2022-10-24T00:52:59.393Z,12.32
2022-10-24T00:54:02.599Z,8.40
2022-10-24T00:55:04.494Z,7.85
2022-10-24T00:56:07.388Z,7.70
2022-10-24T00:57:09.558Z,9.32
2022-10-24T00:58:11.024Z,6.25
2022-10-24T00:59:12.186Z,10.20
2022-10-24T01:00:14.907Z,8.20
2022-10-24T01:01:15.921Z,6.07
2022-10-24T01:02:17.185Z,9.55
2022-10-24T01:03:18.147Z,10.05
2022-10-24T01:04:19.939Z,10.00
2022-10-24T01:05:22.182Z,9.32
2022-10-24T01:06:28.865Z,10.48
2022-10-24T01:07:52.634Z,10.45
2022-10-24T01:08:58.226Z,9.30
2022-10-24T01:10:16.831Z,11.63
2022-10-24T01:11:25.927Z,8.10
2022-10-24T01:12:32.224Z,9.68
2022-10-24T01:13:38.281Z,9.63
2022-10-24T01:14:45.357Z,9.15
2022-10-24T01:15:48.524Z,12.85
2022-10-24T01:16:51.141Z,9.68
2022-10-24T01:17:56.387Z,9.77
2022-10-24T01:19:00.709Z,10.55
2022-10-24T01:20:31.978Z,10.73
2022-10-24T01:21:34.790Z,11.68
2022-10-24T01:22:41.370Z,8.15
2022-10-24T01:23:52.433Z,12.88
2022-10-24T01:25:03.164Z,14.32
2022-10-24T01:26:13.798Z,12.32
2022-10-24T01:27:27.187Z,10.50
2022-10-24T01:28:30.285Z,10.98
2022-10-24T01:29:40.190Z,10.75
2022-10-24T01:30:42.918Z,11.27
2022-10-24T01:31:47.415Z,13.05
2022-10-24T01:32:55.590Z,10.25
2022-10-24T01:33:58.962Z,11.02
2022-10-24T01:35:01.672Z,8.93
2022-10-24T01:36:04.533Z,11.70
2022-10-24T01:37:07.273Z,8.25
2022-10-24T01:38:12.674Z,12.35
2022-10-24T01:39:16.537Z,11.65
2022-10-24T01:40:20.240Z,11.05
2022-10-24T01:41:23.190Z,9.90
2022-10-24T01:42:25.817Z,9.80
2022-10-24T01:43:27.995Z,9.30
2022-10-24T01:44:30.829Z,14.75
2022-10-24T01:45:34.317Z,10.80
2022-10-24T01:46:37.233Z,14.98
2022-10-24T01:47:39.935Z,12.80
2022-10-24T01:48:43.855Z,11.15
2022-10-24T01:49:47.887Z,18.23
2022-10-24T01:50:50.493Z,9.25
2022-10-24T01:51:53.261Z,12.68
2022-10-24T01:52:55.049Z,10.88
2022-10-24T01:53:56.475Z,16.20
2022-10-24T01:54:57.367Z,13.05
2022-10-24T01:55:58.998Z,14.80
2022-10-24T01:57:01.077Z,10.77
2022-10-24T01:58:02.201Z,13.35
2022-10-24T01:59:06.682Z,17.65
2022-10-24T02:00:09.227Z,12.07
2022-10-24T02:01:13.637Z,12.20
2022-10-24T02:02:17.206Z,10.90
2022-10-24T02:03:21.804Z,12.60
2022-10-24T02:04:22.996Z,11.52
2022-10-24T02:05:25.493Z,12.30
2022-10-24T02:06:29.275Z,13.90
2022-10-24T02:07:31.812Z,10.77
2022-10-24T02:08:35.397Z,10.98
2022-10-24T02:09:38.146Z,13.00
2022-10-24T02:10:41.631Z,13.65
2022-10-24T02:11:44.204Z,10.77
2022-10-24T02:12:47.548Z,12.65
2022-10-24T02:13:51.943Z,13.10
2022-10-24T02:14:55.158Z,11.13
2022-10-24T02:15:57.837Z,15.02
2022-10-24T02:17:00.000Z,11.02
2022-10-24T02:18:01.711Z,11.98
2022-10-24T02:19:02.595Z,12.00
2022-10-24T02:20:04.379Z,14.40
2022-10-24T02:21:15.196Z,8.93
2022-10-24T02:22:21.039Z,13.73
2022-10-24T02:23:25.966Z,9.98
2022-10-24T02:24:28.033Z,12.70
2022-10-24T02:25:32.579Z,12.75
2022-10-24T02:26:36.188Z,11.77
2022-10-24T02:27:38.755Z,11.38
2022-10-24T02:28:41.715Z,14.70
2022-10-24T02:29:45.314Z,13.15
2022-10-24T02:30:47.603Z,10.30
2022-10-24T02:31:53.679Z,12.18
2022-10-24T02:32:57.181Z,13.27
2022-10-24T02:33:59.748Z,11.00
2022-10-24T02:35:01.043Z,13.63
2022-10-24T02:36:02.702Z,11.75
2022-10-24T02:37:05.350Z,12.82
2022-10-24T02:38:09.905Z,11.30
2022-10-24T02:39:11.291Z,11.18
2022-10-24T02:40:14.464Z,16.08
2022-10-24T02:41:18.793Z,12.93
2022-10-24T02:42:20.640Z,12.65
2022-10-24T02:44:23.994Z,13.80
2022-10-24T02:45:25.309Z,15.68
2022-10-24T02:46:26.843Z,17.25
2022-10-24T02:47:28.502Z,13.38
2022-10-24T02:48:33.920Z,18.05
2022-10-24T02:49:35.093Z,17.85
2022-10-24T02:50:37.552Z,14.77
2022-10-24T02:51:40.798Z,17.58
2022-10-24T02:52:42.897Z,15.27
2022-10-24T02:53:44.239Z,14.52
2022-10-24T02:54:45.114Z,13.77
2022-10-24T02:55:46.415Z,14.05
2022-10-24T02:56:50.088Z,13.43
2022-10-24T02:57:51.214Z,16.05
2022-10-24T02:58:52.065Z,14.07
2022-10-24T02:59:53.321Z,18.52
2022-10-24T03:00:54.237Z,11.10
2022-10-24T03:01:55.456Z,12.23
2022-10-24T03:02:56.389Z,11.23
2022-10-24T03:03:58.172Z,15.77
2022-10-24T03:04:59.321Z,12.52
2022-10-24T03:06:00.449Z,17.17
2022-10-24T03:07:01.280Z,13.18
2022-10-24T03:08:02.526Z,16.20
2022-10-24T03:09:03.358Z,15.52
2022-10-24T03:10:04.810Z,18.43
2022-10-24T03:11:05.766Z,13.90
2022-10-24T03:12:07.027Z,17.90
2022-10-24T03:13:07.872Z,13.18
2022-10-24T03:14:09.016Z,16.10
2022-10-24T03:15:10.488Z,17.52
2022-10-24T03:16:14.015Z,13.38
2022-10-24T03:17:15.230Z,16.83
2022-10-24T03:18:16.369Z,13.93
2022-10-24T03:19:17.968Z,18.52
2022-10-24T03:20:19.120Z,16.00
2022-10-24T03:21:19.975Z,17.33
2022-10-24T03:22:21.103Z,14.18
2022-10-24T03:23:22.000Z,20.10
2022-10-24T03:24:31.355Z,14.98
2022-10-24T03:25:44.249Z,21.60
2022-10-24T03:26:45.409Z,21.77
2022-10-24T03:27:46.475Z,19.60
2022-10-24T03:28:47.837Z,19.85
2022-10-24T03:29:48.676Z,17.02
2022-10-24T03:30:49.889Z,18.47
2022-10-24T03:31:50.753Z,17.45
2022-10-24T03:32:51.870Z,18.30
2022-10-24T03:33:52.701Z,18.88
2022-10-24T03:34:54.604Z,20.23
2022-10-24T03:35:55.591Z,16.77
2022-10-24T03:36:56.695Z,17.80
2022-10-24T03:37:57.586Z,14.57
2022-10-24T03:38:58.716Z,17.07
2022-10-24T03:39:59.529Z,18.35
2022-10-24T03:41:00.650Z,15.17
2022-10-24T03:42:01.565Z,17.75
2022-10-24T03:43:02.723Z,16.27
2022-10-24T03:44:03.662Z,16.63
2022-10-24T03:45:05.390Z,19.73
2022-10-24T03:46:06.254Z,16.50
2022-10-24T03:47:07.374Z,15.63
2022-10-24T03:48:08.242Z,20.08
2022-10-24T03:49:09.536Z,17.23
2022-10-24T03:50:11.074Z,15.70
2022-10-24T03:52:13.412Z,16.33
2022-10-24T03:53:14.593Z,15.40
2022-10-24T03:54:15.484Z,11.57
2022-10-24T03:55:16.711Z,15.20
2022-10-24T03:56:17.599Z,17.20
2022-10-24T03:57:18.823Z,12.68
2022-10-24T03:58:19.687Z,17.38
2022-10-24T03:59:20.838Z,13.57
2022-10-24T04:00:21.919Z,16.55
2022-10-24T04:01:23.757Z,19.30
2022-10-24T04:02:24.678Z,16.00
2022-10-24T04:03:26.354Z,15.03
2022-10-24T04:04:27.211Z,16.98
2022-10-24T04:05:29.032Z,18.40
2022-10-24T04:06:31.408Z,19.48
2022-10-24T04:07:35.268Z,16.05
2022-10-24T04:08:36.174Z,14.82
2022-10-24T04:09:37.344Z,15.48
2022-10-24T04:10:38.187Z,13.73
2022-10-24T04:11:39.354Z,22.93
2022-10-24T04:12:40.195Z,17.73
2022-10-24T04:13:41.307Z,16.67
2022-10-24T04:14:42.235Z,18.08
2022-10-24T04:15:43.353Z,14.70
2022-10-24T04:16:44.242Z,17.20
2022-10-24T04:17:45.644Z,16.53
2022-10-24T04:18:46.668Z,16.42
2022-10-24T04:19:47.795Z,18.50
2022-10-24T04:20:49.290Z,15.88
2022-10-24T04:21:50.511Z,18.65
2022-10-24T04:22:51.342Z,16.80
2022-10-24T04:23:52.466Z,14.90
2022-10-24T04:24:53.304Z,15.57
2022-10-24T04:25:54.458Z,15.90
2022-10-24T04:26:55.378Z,13.48
2022-10-24T04:27:56.487Z,20.13
2022-10-24T04:28:57.363Z,20.30
2022-10-24T04:29:58.531Z,19.37
2022-10-24T04:30:59.371Z,21.25
2022-10-24T04:32:00.878Z,17.83
2022-10-24T04:33:01.714Z,20.90
2022-10-24T04:34:04.494Z,17.57
2022-10-24T04:35:06.192Z,18.48
2022-10-24T04:36:08.297Z,18.52
2022-10-24T04:37:09.178Z,13.50
2022-10-24T04:38:10.301Z,19.37
2022-10-24T04:39:11.138Z,22.45
2022-10-24T04:40:12.303Z,19.50
2022-10-24T04:41:13.135Z,16.30
2022-10-24T04:42:14.288Z,19.13
2022-10-24T04:43:15.173Z,19.55
2022-10-24T04:44:16.305Z,17.75
2022-10-24T04:45:17.173Z,18.08
2022-10-24T04:46:18.302Z,18.57
2022-10-24T04:48:21.215Z,16.70
2022-10-24T04:49:22.084Z,16.42
2022-10-24T04:50:23.210Z,16.90
2022-10-24T04:51:24.720Z,16.35
2022-10-24T04:52:26.017Z,16.20
2022-10-24T04:53:26.874Z,20.77
2022-10-24T04:54:27.965Z,13.23
2022-10-24T04:55:28.868Z,17.92
2022-10-24T04:56:30.032Z,21.63
2022-10-24T04:57:30.951Z,19.30
2022-10-24T04:58:32.085Z,14.15
2022-10-24T04:59:32.940Z,20.23
2022-10-24T05:00:34.055Z,17.90
2022-10-24T05:01:34.945Z,22.88
2022-10-24T05:02:36.158Z,15.93
2022-10-24T05:03:36.998Z,24.88
2022-10-24T05:04:38.151Z,17.33
2022-10-24T05:05:39.003Z,18.17
2022-10-24T05:06:42.791Z,16.50
2022-10-24T05:07:46.761Z,16.10
2022-10-24T05:09:48.782Z,16.65
2022-10-24T05:10:49.745Z,16.67
2022-10-24T05:11:50.865Z,18.02
2022-10-24T05:12:51.830Z,16.42
2022-10-24T05:13:52.972Z,21.02
2022-10-24T05:14:53.804Z,17.60
2022-10-24T05:15:54.940Z,16.83
2022-10-24T05:16:55.898Z,17.33
2022-10-24T05:17:57.140Z,19.20
2022-10-24T05:18:58.026Z,18.88
2022-10-24T05:19:59.146Z,14.90
2022-10-24T05:21:00.233Z,21.52
2022-10-24T05:22:03.276Z,14.70
2022-10-24T05:23:06.166Z,22.38
2022-10-24T05:24:07.140Z,24.58
2022-10-24T05:25:08.476Z,26.30
2022-10-24T05:26:09.315Z,18.60
2022-10-24T05:27:10.561Z,20.35
2022-10-24T05:28:11.740Z,15.85
2022-10-24T05:29:12.593Z,19.50
2022-10-24T05:30:13.785Z,20.87
2022-10-24T05:31:14.601Z,20.05
2022-10-24T05:32:15.721Z,18.37
2022-10-24T05:33:16.602Z,17.10
2022-10-24T05:34:18.230Z,19.67
2022-10-24T05:35:19.132Z,17.63
2022-10-24T05:36:20.266Z,17.30
2022-10-24T05:37:21.820Z,16.40
2022-10-24T05:38:23.030Z,19.20
2022-10-24T05:39:23.870Z,21.52
2022-10-24T05:40:25.076Z,15.47
2022-10-24T05:41:25.933Z,21.10
2022-10-24T05:42:27.053Z,22.17
2022-10-24T05:43:27.936Z,21.15
2022-10-24T05:44:29.228Z,19.73
2022-10-24T05:45:30.372Z,21.50
2022-10-24T05:46:31.384Z,20.17
2022-10-24T05:47:32.511Z,19.38
2022-10-24T05:48:33.403Z,20.20
2022-10-24T05:49:34.533Z,18.20
2022-10-24T05:50:35.451Z,22.77
2022-10-24T05:51:36.614Z,15.63
2022-10-24T05:52:43.272Z,23.55
2022-10-24T05:53:47.791Z,22.77
2022-10-24T05:55:02.796Z,20.83
2022-10-24T05:56:07.942Z,20.65
2022-10-24T05:57:08.774Z,20.85
2022-10-24T05:58:09.868Z,19.93
2022-10-24T05:59:10.772Z,24.02
2022-10-24T06:00:13.165Z,22.47
2022-10-24T06:01:14.045Z,20.15
2022-10-24T06:02:16.976Z,22.30
2022-10-24T06:03:17.871Z,21.80
2022-10-24T06:04:19.079Z,22.00
2022-10-24T06:05:20.111Z,19.95
2022-10-24T06:06:21.469Z,21.45
2022-10-24T06:07:22.438Z,17.73
2022-10-24T06:08:24.236Z,24.10
2022-10-24T06:09:25.146Z,26.35
2022-10-24T06:10:26.267Z,19.87
2022-10-24T06:11:27.079Z,24.15
2022-10-24T06:12:28.279Z,21.20
2022-10-24T06:13:33.787Z,23.50
2022-10-24T06:14:38.163Z,25.50
2022-10-24T06:16:39.909Z,25.15
2022-10-24T06:17:40.734Z,21.50
2022-10-24T06:18:42.098Z,25.27
2022-10-24T06:19:43.266Z,27.17
2022-10-24T06:20:44.448Z,25.00
2022-10-24T06:21:45.290Z,23.42
2022-10-24T06:22:48.001Z,22.07
2022-10-24T06:23:49.636Z,23.60
2022-10-24T06:24:51.075Z,21.23
2022-10-24T06:25:52.184Z,24.05
2022-10-24T06:26:53.112Z,21.00
2022-10-24T06:27:54.286Z,29.27
2022-10-24T06:28:55.133Z,21.08
2022-10-24T06:29:56.382Z,25.37
2022-10-24T06:30:57.227Z,21.02
2022-10-24T06:31:58.445Z,29.05
2022-10-24T06:32:59.294Z,25.00
2022-10-24T06:34:00.505Z,23.00
2022-10-24T06:35:01.457Z,24.65
2022-10-24T06:36:04.108Z,27.37
2022-10-24T06:37:04.997Z,21.85
2022-10-24T06:38:06.367Z,25.27
2022-10-24T06:39:08.004Z,26.42
2022-10-24T06:40:09.466Z,27.38
2022-10-24T06:41:12.496Z,20.88
2022-10-24T06:42:13.628Z,26.27
2022-10-24T06:43:15.654Z,33.22
2022-10-24T06:44:16.827Z,25.25
2022-10-24T06:45:20.078Z,24.65
2022-10-24T06:46:22.731Z,27.48
2022-10-24T06:47:23.622Z,28.08
2022-10-24T06:48:24.829Z,25.40
2022-10-24T06:49:25.694Z,22.52
2022-10-24T06:50:26.980Z,26.93
2022-10-24T06:51:27.832Z,26.60
2022-10-24T06:52:28.976Z,22.40
2022-10-24T06:53:31.731Z,27.55
2022-10-24T06:54:34.678Z,30.83
2022-10-24T06:55:37.615Z,27.95
2022-10-24T06:56:38.745Z,26.35
2022-10-24T06:57:39.623Z,26.92
2022-10-24T06:58:40.954Z,34.43
2022-10-24T06:59:42.125Z,26.23
2022-10-24T07:00:43.018Z,30.67
2022-10-24T07:01:44.845Z,29.37
2022-10-24T07:02:46.410Z,30.50
2022-10-24T07:03:47.730Z,31.92
2022-10-24T07:04:48.870Z,29.43
2022-10-24T07:05:49.867Z,29.05
2022-10-24T07:06:50.996Z,26.03
2022-10-24T07:07:52.115Z,28.40
2022-10-24T07:08:54.111Z,32.55
2022-10-24T07:09:57.110Z,24.35
2022-10-24T07:10:58.157Z,26.40
2022-10-24T07:11:59.259Z,24.58
2022-10-24T07:13:00.097Z,24.80
2022-10-24T07:14:03.457Z,27.83
2022-10-24T07:15:06.538Z,25.35
2022-10-24T07:17:08.370Z,32.42
2022-10-24T07:18:13.020Z,25.33
2022-10-24T07:19:14.224Z,25.83
2022-10-24T07:20:15.068Z,24.92
2022-10-24T07:21:18.085Z,26.80
2022-10-24T07:22:18.973Z,29.13
2022-10-24T07:23:20.099Z,28.07
2022-10-24T07:24:21.938Z,31.05
2022-10-24T07:25:23.465Z,25.35
2022-10-24T07:26:25.250Z,29.85
2022-10-24T07:27:26.121Z,31.08
2022-10-24T07:28:27.248Z,28.00
2022-10-24T07:29:28.458Z,30.05
2022-10-24T07:30:29.576Z,31.15
2022-10-24T07:31:31.827Z,30.15
2022-10-24T07:32:32.982Z,31.65
2022-10-24T07:33:34.157Z,29.08
2022-10-24T07:34:35.045Z,31.70
2022-10-24T07:35:40.465Z,28.98
2022-10-24T07:36:43.772Z,34.83
2022-10-24T07:37:45.479Z,36.00
2022-10-24T07:38:46.461Z,33.38
2022-10-24T07:39:47.666Z,28.23
2022-10-24T07:40:49.493Z,32.28
2022-10-24T07:41:50.674Z,26.42
2022-10-24T07:42:51.545Z,26.67
2022-10-24T07:43:54.198Z,31.52
2022-10-24T07:44:55.337Z,26.40
2022-10-24T07:45:56.516Z,26.17
2022-10-24T07:46:57.437Z,28.85
2022-10-24T07:47:59.323Z,25.13
2022-10-24T07:49:00.455Z,26.00
2022-10-24T07:50:01.459Z,32.38
2022-10-24T07:51:05.187Z,28.90
2022-10-24T07:52:06.348Z,27.33
2022-10-24T07:53:07.185Z,23.27
2022-10-24T07:54:08.772Z,27.10
2022-10-24T07:55:09.635Z,26.23
2022-10-24T07:56:13.752Z,25.27
2022-10-24T07:57:14.626Z,23.13
2022-10-24T07:58:15.766Z,26.87
2022-10-24T07:59:37.204Z,24.83
2022-10-24T08:00:42.527Z,27.75
2022-10-24T08:01:46.181Z,24.35
2022-10-24T08:02:50.491Z,25.58
2022-10-24T08:03:51.669Z,24.90
2022-10-24T08:04:52.506Z,23.92
2022-10-24T08:05:56.337Z,24.30
2022-10-24T08:06:57.171Z,24.55
2022-10-24T08:08:12.075Z,30.13
2022-10-24T08:09:21.025Z,22.35
2022-10-24T08:10:22.033Z,20.05
2022-10-24T08:11:25.119Z,21.38
2022-10-24T08:12:25.962Z,25.75
2022-10-24T08:13:27.202Z,23.10
2022-10-24T08:14:28.413Z,26.27
2022-10-24T08:15:29.509Z,26.30
2022-10-24T08:16:30.735Z,28.60
2022-10-24T08:17:31.875Z,19.70
2022-10-24T08:18:37.242Z,24.27
2022-10-24T08:19:43.591Z,19.95
2022-10-24T08:20:45.427Z,23.80
2022-10-24T08:21:46.298Z,21.52
2022-10-24T08:22:47.610Z,28.80
2022-10-24T08:23:50.173Z,27.13
2022-10-24T08:24:51.294Z,22.40
2022-10-24T08:25:52.186Z,25.48
2022-10-24T08:26:55.897Z,21.83
2022-10-24T08:27:57.052Z,22.42
2022-10-24T08:28:58.241Z,25.33
2022-10-24T08:29:59.347Z,26.35
2022-10-24T08:31:01.808Z,23.85
2022-10-24T08:32:03.117Z,19.73
2022-10-24T08:33:03.952Z,27.77
2022-10-24T08:34:05.511Z,27.27
2022-10-24T08:35:06.973Z,23.45
2022-10-24T08:36:13.296Z,29.75
2022-10-24T08:37:14.419Z,19.30
2022-10-24T08:38:15.252Z,29.77
2022-10-24T08:39:16.889Z,28.20
2022-10-24T08:40:18.578Z,21.70
2022-10-24T08:41:24.934Z,25.98
2022-10-24T08:42:26.967Z,23.65
2022-10-24T08:43:27.831Z,22.70
2022-10-24T08:44:30.376Z,27.57
2022-10-24T08:45:35.447Z,23.60
2022-10-24T08:46:39.546Z,27.40
2022-10-24T08:47:44.005Z,27.27
2022-10-24T08:48:49.499Z,25.45
2022-10-24T08:49:52.485Z,23.95
2022-10-24T08:50:55.751Z,21.60
2022-10-24T08:51:58.849Z,21.05
2022-10-24T08:53:01.859Z,20.83
2022-10-24T08:54:03.585Z,27.70
2022-10-24T08:55:09.169Z,21.90
2022-10-24T08:56:11.024Z,25.85
2022-10-24T08:57:18.538Z,19.13
2022-10-24T08:58:23.118Z,20.25
2022-10-24T08:59:24.474Z,19.08
2022-10-24T09:00:27.447Z,18.00
2022-10-24T09:01:30.965Z,18.58
2022-10-24T09:02:35.009Z,21.25
2022-10-24T09:03:57.055Z,17.90
2022-10-24T09:04:59.888Z,18.70
2022-10-24T09:06:03.486Z,16.70
2022-10-24T09:07:05.028Z,18.17
2022-10-24T09:08:12.842Z,14.82
2022-10-24T09:09:18.865Z,16.38
2022-10-24T09:10:22.381Z,12.27
2022-10-24T09:11:25.877Z,13.10
2022-10-24T09:12:26.989Z,11.60
2022-10-24T09:13:29.280Z,10.13
2022-10-24T09:14:31.078Z,11.40
2022-10-24T09:15:31.915Z,16.15
2022-10-24T09:16:33.219Z,12.20
2022-10-24T09:17:34.901Z,13.73
2022-10-24T09:18:38.097Z,13.13
2022-10-24T09:19:39.237Z,13.43
2022-10-24T09:20:40.055Z,14.50
2022-10-24T09:21:41.990Z,14.40
2022-10-24T09:23:45.628Z,14.10
2022-10-24T09:24:48.038Z,13.85
2022-10-24T09:25:50.479Z,14.25
2022-10-24T09:26:51.931Z,13.77
2022-10-24T09:27:53.073Z,15.60
2022-10-24T09:28:56.316Z,16.27
2022-10-24T09:29:58.279Z,15.10
2022-10-24T09:31:02.715Z,16.45
2022-10-24T09:32:03.651Z,14.77
2022-10-24T09:33:12.209Z,15.80
2022-10-24T09:34:13.029Z,16.08
2022-10-24T09:35:16.426Z,17.87
2022-10-24T09:36:18.492Z,16.25
2022-10-24T09:37:33.092Z,16.63
2022-10-24T09:38:39.903Z,17.45
2022-10-24T09:39:40.777Z,13.65
2022-10-24T09:40:47.048Z,17.47
2022-10-24T09:41:48.157Z,19.23
2022-10-24T09:42:51.883Z,19.35
2022-10-24T09:43:55.395Z,16.95
2022-10-24T09:44:57.015Z,18.73
2022-10-24T09:46:00.810Z,21.35
2022-10-24T09:47:03.079Z,18.60
2022-10-24T09:48:06.107Z,20.42
2022-10-24T09:49:16.818Z,18.73
2022-10-24T09:50:19.096Z,20.63
2022-10-24T09:51:22.618Z,17.08
2022-10-24T09:52:25.208Z,20.25
2022-10-24T09:53:27.318Z,18.52
2022-10-24T09:54:29.373Z,15.32
2022-10-24T09:55:30.566Z,14.48
2022-10-24T09:56:39.270Z,17.30
2022-10-24T09:57:40.422Z,19.25
2022-10-24T09:58:42.126Z,21.27
2022-10-24T09:59:43.626Z,17.08
2022-10-24T10:00:55.872Z,19.27
2022-10-24T10:02:07.867Z,15.25
2022-10-24T10:03:23.539Z,16.85
2022-10-24T10:04:25.165Z,17.73
2022-10-24T10:05:26.659Z,13.07
2022-10-24T10:06:27.569Z,12.80
2022-10-24T10:07:30.834Z,12.83
2022-10-24T10:08:33.015Z,11.48
2022-10-24T10:09:36.938Z,12.95
2022-10-24T10:10:38.089Z,11.48
2022-10-24T10:11:40.832Z,12.27
2022-10-24T10:12:54.452Z,15.23
2022-10-24T10:13:55.995Z,16.02
2022-10-24T10:14:56.877Z,17.73
2022-10-24T10:15:59.431Z,17.03
2022-10-24T10:17:01.556Z,16.27
2022-10-24T10:18:04.834Z,17.80
2022-10-24T10:19:12.759Z,16.75
2022-10-24T10:20:22.393Z,17.85
2022-10-24T10:21:24.406Z,19.27
2022-10-24T10:22:26.492Z,17.90
2022-10-24T10:23:30.905Z,14.70
2022-10-24T10:24:37.038Z,20.52
2022-10-24T10:25:37.948Z,19.13
2022-10-24T10:26:42.800Z,22.37
2022-10-24T10:27:49.463Z,14.07
2022-10-24T10:29:01.183Z,19.77
2022-10-24T10:30:14.214Z,18.65
2022-10-24T10:31:16.851Z,18.13
2022-10-24T10:32:22.526Z,17.90
2022-10-24T10:33:26.658Z,20.52
2022-10-24T10:34:30.629Z,21.38
2022-10-24T10:35:37.331Z,21.80
2022-10-24T10:36:42.962Z,19.13
2022-10-24T10:37:48.140Z,18.52
2022-10-24T10:38:50.916Z,17.10
2022-10-24T10:40:01.015Z,19.33
2022-10-24T10:41:04.373Z,16.23
2022-10-24T10:42:08.524Z,16.90
2022-10-24T10:43:23.316Z,16.13
2022-10-24T10:44:31.403Z,17.70
2022-10-24T10:45:35.284Z,18.88
2022-10-24T10:46:42.875Z,15.40
2022-10-24T10:47:47.875Z,18.38
2022-10-24T10:48:55.380Z,17.77
2022-10-24T10:49:57.941Z,21.15
2022-10-24T10:51:05.782Z,17.77
2022-10-24T10:52:12.179Z,16.73
2022-10-24T10:53:20.868Z,18.23
2022-10-24T10:54:28.038Z,18.10
2022-10-24T10:55:31.695Z,15.82
2022-10-24T10:56:37.666Z,18.83
2022-10-24T10:57:42.651Z,16.42
2022-10-24T10:58:47.228Z,15.98
2022-10-24T10:59:52.984Z,15.65
2022-10-24T11:00:58.247Z,22.45
2022-10-24T11:02:02.773Z,18.52
2022-10-24T11:03:16.606Z,18.92
2022-10-24T11:04:22.373Z,16.65
2022-10-24T11:05:27.193Z,16.73
2022-10-24T11:06:34.153Z,16.38
2022-10-24T11:07:40.028Z,16.80
2022-10-24T11:08:47.096Z,19.40
2022-10-24T11:09:49.118Z,16.90
2022-10-24T11:11:53.648Z,14.30
2022-10-24T11:12:55.623Z,12.27
2022-10-24T11:15:00.205Z,14.70
2022-10-24T11:16:04.646Z,14.07
2022-10-24T11:17:11.436Z,10.95
2022-10-24T11:18:14.014Z,11.52
2022-10-24T11:19:22.737Z,12.55
2022-10-24T11:20:25.888Z,13.65
2022-10-24T11:21:29.732Z,11.40
2022-10-24T11:22:34.544Z,11.60
2022-10-24T11:23:38.862Z,11.70
2022-10-24T11:24:43.057Z,14.57
2022-10-24T11:25:46.214Z,12.73
2022-10-24T11:26:51.757Z,13.40
2022-10-24T11:27:57.296Z,11.07
2022-10-24T11:29:01.085Z,15.10
2022-10-24T11:30:04.092Z,15.57
2022-10-24T11:31:07.511Z,17.95
2022-10-24T11:32:15.776Z,12.38
2022-10-24T11:33:20.413Z,13.48
2022-10-24T11:34:24.739Z,15.63
2022-10-24T11:35:28.254Z,12.82
2022-10-24T11:36:32.310Z,15.80
2022-10-24T11:37:35.704Z,12.40
2022-10-24T11:38:40.312Z,12.57
2022-10-24T11:39:44.378Z,15.13
2022-10-24T11:40:47.655Z,13.90
2022-10-24T11:41:59.620Z,11.05
2022-10-24T11:43:07.022Z,14.77
2022-10-24T11:44:14.828Z,11.25
2022-10-24T11:45:17.304Z,13.20
2022-10-24T11:46:20.008Z,14.43
2022-10-24T11:47:40.046Z,14.35
2022-10-24T11:48:42.791Z,14.32
2022-10-24T11:49:47.234Z,11.82
2022-10-24T11:50:51.174Z,12.85
2022-10-24T11:51:54.767Z,13.73
2022-10-24T11:52:58.485Z,12.73
2022-10-24T11:54:00.801Z,16.60
2022-10-24T11:55:05.374Z,13.07
2022-10-24T11:56:11.328Z,13.60
2022-10-24T11:57:16.039Z,11.02
2022-10-24T11:58:19.034Z,14.68
2022-10-24T11:59:23.511Z,16.75
2022-10-24T12:00:28.224Z,13.68
2022-10-24T12:01:53.040Z,13.88
2022-10-24T12:03:09.008Z,14.52
2022-10-24T12:04:31.223Z,18.00
2022-10-24T12:05:46.487Z,15.30
2022-10-24T12:06:57.163Z,13.13
2022-10-24T12:08:05.475Z,13.95
2022-10-24T12:09:12.626Z,18.65
2022-10-24T12:10:25.568Z,16.30
2022-10-24T12:11:36.722Z,15.52
2022-10-24T12:12:47.823Z,16.45
2022-10-24T12:13:54.640Z,14.68
2022-10-24T12:15:04.718Z,15.80
2022-10-24T12:16:11.642Z,16.60
2022-10-24T12:17:24.475Z,14.50
2022-10-24T12:18:29.123Z,18.15
2022-10-24T12:19:31.521Z,15.55
2022-10-24T12:20:33.202Z,16.05
2022-10-24T12:21:36.870Z,12.82
2022-10-24T12:22:40.457Z,13.40
2022-10-24T12:23:42.205Z,16.50
2022-10-24T12:24:43.335Z,13.68
2022-10-24T12:25:47.406Z,12.48
2022-10-24T12:26:59.270Z,13.48
2022-10-24T12:28:01.814Z,15.63
2022-10-24T12:29:04.187Z,15.18
2022-10-24T12:30:14.147Z,12.63
2022-10-24T12:31:22.364Z,14.68
2022-10-24T12:32:33.077Z,14.43
2022-10-24T12:33:34.284Z,14.20
2022-10-24T12:34:49.082Z,15.68
2022-10-24T12:35:52.132Z,12.70
2022-10-24T12:37:04.191Z,14.25
2022-10-24T12:38:14.739Z,12.48
2022-10-24T12:39:28.002Z,13.90
2022-10-24T12:40:47.798Z,14.50
2022-10-24T12:41:48.946Z,11.98
2022-10-24T12:43:11.657Z,13.52
2022-10-24T12:44:31.542Z,18.52
2022-10-24T12:45:33.115Z,13.15
2022-10-24T12:46:51.584Z,14.50
2022-10-24T12:48:09.996Z,15.13
2022-10-24T12:49:15.721Z,15.48
2022-10-24T12:50:35.579Z,16.23
2022-10-24T12:51:37.079Z,14.90
2022-10-24T12:52:58.738Z,17.75
2022-10-24T12:54:01.936Z,13.45
2022-10-24T12:55:02.942Z,15.27
2022-10-24T12:57:25.235Z,16.67
2022-10-24T12:58:28.401Z,19.10
2022-10-24T12:59:29.992Z,14.20
2022-10-24T13:00:31.111Z,15.30
2022-10-24T13:01:33.717Z,19.65
2022-10-24T13:02:50.738Z,15.13
2022-10-24T13:04:10.755Z,16.60
2022-10-24T13:05:17.275Z,16.25
2022-10-24T13:06:41.934Z,15.43
2022-10-24T13:07:53.969Z,18.75
2022-10-24T13:09:02.644Z,16.73
2022-10-24T13:10:14.206Z,14.05
2022-10-24T13:11:25.596Z,13.85
2022-10-24T13:12:39.975Z,15.20
2022-10-24T13:13:50.009Z,11.48
2022-10-24T13:15:00.725Z,15.43
2022-10-24T13:16:06.669Z,14.90
2022-10-24T13:17:10.250Z,15.63
2022-10-24T13:18:24.430Z,14.05
2022-10-24T13:19:26.161Z,13.00
2022-10-24T13:20:28.731Z,14.05
2022-10-24T13:21:30.810Z,14.10
2022-10-24T13:22:34.720Z,17.60
2022-10-24T13:23:36.021Z,17.80
2022-10-24T13:24:37.739Z,14.85
2022-10-24T13:25:39.859Z,15.43
2022-10-24T13:26:42.350Z,12.73
2022-10-24T13:27:43.172Z,16.08
2022-10-24T13:28:44.325Z,15.13
2022-10-24T13:30:02.583Z,14.68
2022-10-24T13:31:22.444Z,15.05
2022-10-24T13:32:23.754Z,15.23
2022-10-24T13:33:40.571Z,15.70
2022-10-24T13:34:43.644Z,14.05
2022-10-24T13:35:44.914Z,15.50
2022-10-24T13:36:47.364Z,16.67
2022-10-24T13:37:50.518Z,13.57
2022-10-24T13:38:52.658Z,15.55
2022-10-24T13:39:56.210Z,16.38
2022-10-24T13:40:57.874Z,17.55
2022-10-24T13:42:01.423Z,16.13
2022-10-24T13:43:07.504Z,17.10
2022-10-24T13:44:14.662Z,15.10
2022-10-24T13:45:21.234Z,16.45
2022-10-24T13:46:25.734Z,16.65
2022-10-24T13:47:29.296Z,22.33
2022-10-24T13:48:32.608Z,16.63
2022-10-24T13:49:36.657Z,17.40
2022-10-24T13:50:40.998Z,18.88